Hovedside
METAR-TAF:

METAR-TAF

Lufthavner :

Jyväskylä, Finland

Jyväskylä lufthavn

breddegrad: 62-24N, lengdegrad: 025-41E, høyde over havet: 141 m

Gjeldene værobservasjon

Denne rapporten ble laget for 23 minutter siden, klokken 07:20 UTC
Vind 2 kt fra Sør
Temperatur 0°C
Luftfuktighet 86%
Trykk 1032 hPa
Sikt 10 km eller mer
Få skyer i en høyde av 800 ft
Brutte skyer i en høyde av 2200 ft
lett snø

METAR: EFJY 240720Z 17002KT 9999 -SN FEW008 BKN022 00/M02 Q1032

Tid: 10:43 (07:43 UTC)

Varsel

Denne rapporten ble laget for 2 timer og 12 minutter siden, klokken 05:31 UTC
Varsel gyldig fra 24. klokken 06 UTC til 25. klokken 06 UTC
Vind 2 kt fra skiftende retning
Sikt 10 km eller mer
Brutte skyer i en høyde av 2000 ft
Sannsynlighet 30%
fra 25. klokken 00 UTC til 25. klokken 05 UTC
Brutte skyer i en høyde av 600 ft

TAF: EFJY 240531Z 2406/2506 VRB02KT 9999 BKN020 PROB30 2500/2505 BKN006

Værobservasjoner og værvarsel for over 4000 flyplasser (METAR- og TAF-rapporter).

Tilgjengelige stasjoner er representert av de røde og gule prikkene på kartet.

Hold musepekeren over prikken for å se navnet på stasjonen.

Klikk så for å se værobservasjoner og -varsler.

For å forandre kartet kan du klikke på den grønne knappen med svart kryss for å zoome inn, på den grønne knappen med strek for å zoome ut, eller på de grønne pilene for å se tilstøtende kart.


METAR-TAF: